createdAt,value
2023-04-11T00:00:32.448Z,16.76
2023-04-11T00:03:01.781Z,16.77
2023-04-11T00:05:31.246Z,16.76
2023-04-11T00:07:57.711Z,16.75
2023-04-11T00:10:24.232Z,16.75
2023-04-11T00:12:50.570Z,16.75
2023-04-11T00:15:17.501Z,16.76
2023-04-11T00:17:45.864Z,16.76
2023-04-11T00:20:13.000Z,16.77
2023-04-11T00:22:39.629Z,16.76
2023-04-11T00:25:07.039Z,16.76
2023-04-11T00:27:33.632Z,16.74
2023-04-11T00:30:00.664Z,16.74
2023-04-11T00:32:27.659Z,16.73
2023-04-11T00:34:55.218Z,16.73
2023-04-11T00:37:22.093Z,16.72
2023-04-11T00:39:53.222Z,16.71
2023-04-11T00:42:20.434Z,16.72
2023-04-11T00:44:47.413Z,16.72
2023-04-11T00:47:14.389Z,16.72
2023-04-11T00:49:41.058Z,16.73
2023-04-11T00:52:08.088Z,16.73
2023-04-11T00:54:34.973Z,16.72
2023-04-11T00:57:03.343Z,16.73
2023-04-11T00:59:31.534Z,16.74
2023-04-11T01:01:59.077Z,16.75
2023-04-11T01:04:29.876Z,16.76
2023-04-11T01:07:05.811Z,16.75
2023-04-11T01:09:33.755Z,16.77
2023-04-11T01:12:01.664Z,16.77
2023-04-11T01:14:28.912Z,16.77
2023-04-11T01:16:56.663Z,16.78
2023-04-11T01:19:26.146Z,16.77
2023-04-11T01:21:53.909Z,16.79
2023-04-11T01:24:20.731Z,16.80
2023-04-11T01:26:47.556Z,16.81
2023-04-11T01:29:14.184Z,16.81
2023-04-11T01:31:40.818Z,16.82
2023-04-11T01:34:07.670Z,16.83
2023-04-11T01:36:34.313Z,16.83
2023-04-11T01:39:01.574Z,16.84
2023-04-11T01:41:30.437Z,16.84
2023-04-11T01:43:57.060Z,16.86
2023-04-11T01:46:24.220Z,16.87
2023-04-11T01:48:50.758Z,16.87
2023-04-11T01:51:17.368Z,16.88
2023-04-11T01:53:45.917Z,16.89
2023-04-11T01:56:12.485Z,16.92
2023-04-11T01:58:39.092Z,16.94
2023-04-11T02:01:05.591Z,16.94
2023-04-11T02:03:32.013Z,16.92
2023-04-11T02:05:58.819Z,16.92
2023-04-11T02:08:25.267Z,16.92
2023-04-11T02:10:51.861Z,16.92
2023-04-11T02:13:18.220Z,16.91
2023-04-11T02:15:44.628Z,16.90
2023-04-11T02:18:11.174Z,16.89
2023-04-11T02:20:37.633Z,16.88
2023-04-11T02:23:04.504Z,16.85
2023-04-11T02:25:31.490Z,16.84
2023-04-11T02:27:58.086Z,16.81
2023-04-11T02:30:24.415Z,16.80
2023-04-11T02:32:51.115Z,16.78
2023-04-11T02:35:17.652Z,16.76
2023-04-11T02:37:44.228Z,16.75
2023-04-11T02:40:10.965Z,16.73
2023-04-11T02:42:38.916Z,16.70
2023-04-11T02:45:05.750Z,16.66
2023-04-11T02:47:32.356Z,16.63
2023-04-11T02:49:58.754Z,16.61
2023-04-11T02:52:26.134Z,16.59
2023-04-11T02:54:52.714Z,16.57
2023-04-11T02:57:19.071Z,16.55
2023-04-11T02:59:45.451Z,16.53
2023-04-11T03:02:11.964Z,16.51
2023-04-11T03:04:38.672Z,16.51
2023-04-11T03:07:05.670Z,16.50
2023-04-11T03:09:32.388Z,16.50
2023-04-11T03:11:58.756Z,16.51
2023-04-11T03:14:25.120Z,16.50
2023-04-11T03:16:51.527Z,16.51
2023-04-11T03:19:17.896Z,16.51
2023-04-11T03:21:44.218Z,16.48
2023-04-11T03:24:12.505Z,16.48
2023-04-11T03:26:38.899Z,16.48
2023-04-11T03:29:05.239Z,16.45
2023-04-11T03:31:31.946Z,16.42
2023-04-11T03:33:59.404Z,16.40
2023-04-11T03:36:29.560Z,16.36
2023-04-11T03:38:56.503Z,16.35
2023-04-11T03:41:23.299Z,16.33
2023-04-11T03:43:49.641Z,16.30
2023-04-11T03:46:16.023Z,16.28
2023-04-11T03:48:42.611Z,16.27
2023-04-11T03:51:09.189Z,16.27
2023-04-11T03:53:35.623Z,16.27
2023-04-11T03:56:01.977Z,16.25
2023-04-11T03:58:28.334Z,16.25
2023-04-11T04:00:54.752Z,16.26
2023-04-11T04:03:21.776Z,16.25
2023-04-11T04:05:48.663Z,16.23
2023-04-11T04:08:15.270Z,16.23
2023-04-11T04:10:41.592Z,16.22
2023-04-11T04:13:07.963Z,16.21
2023-04-11T04:15:34.617Z,16.17
2023-04-11T04:18:00.977Z,16.15
2023-04-11T04:20:27.417Z,16.13
2023-04-11T04:22:54.102Z,16.12
2023-04-11T04:25:20.556Z,16.11
2023-04-11T04:27:47.714Z,16.08
2023-04-11T04:30:19.342Z,16.08
2023-04-11T04:32:46.303Z,16.10
2023-04-11T04:35:14.123Z,16.11
2023-04-11T04:37:45.886Z,16.12
2023-04-11T04:40:14.085Z,16.13
2023-04-11T04:42:44.071Z,16.15
2023-04-11T04:45:13.385Z,16.14
2023-04-11T04:47:39.860Z,16.14
2023-04-11T04:50:06.875Z,16.13
2023-04-11T04:52:33.566Z,16.12
2023-04-11T04:55:01.034Z,16.11
2023-04-11T04:57:32.101Z,16.08
2023-04-11T04:59:58.960Z,16.06
2023-04-11T05:02:26.615Z,16.03
2023-04-11T05:04:54.744Z,15.99
2023-04-11T05:07:21.134Z,15.96
2023-04-11T05:09:47.725Z,15.92
2023-04-11T05:12:15.919Z,15.88
2023-04-11T05:14:42.568Z,15.84
2023-04-11T05:17:09.219Z,15.82
2023-04-11T05:19:35.705Z,15.79
2023-04-11T05:22:02.123Z,15.76
2023-04-11T05:24:28.496Z,15.75
2023-04-11T05:26:55.067Z,15.72
2023-04-11T05:29:21.430Z,15.73
2023-04-11T05:31:47.803Z,15.71
2023-04-11T05:34:14.238Z,15.71
2023-04-11T05:36:42.197Z,15.71
2023-04-11T05:39:08.598Z,15.72
2023-04-11T05:41:34.964Z,15.73
2023-04-11T05:44:01.887Z,15.75
2023-04-11T05:46:29.433Z,15.78
2023-04-11T05:48:57.990Z,15.79
2023-04-11T05:51:24.594Z,15.75
2023-04-11T05:53:51.924Z,15.71
2023-04-11T05:56:18.337Z,15.63
2023-04-11T05:58:44.710Z,15.54
2023-04-11T06:01:20.319Z,15.45
2023-04-11T06:03:47.360Z,15.35
2023-04-11T06:06:14.108Z,15.29
2023-04-11T06:08:41.392Z,15.25
2023-04-11T06:11:08.101Z,15.20
2023-04-11T06:13:34.496Z,15.16
2023-04-11T06:16:01.625Z,15.14
2023-04-11T06:18:27.991Z,15.13
2023-04-11T06:20:54.448Z,15.13
2023-04-11T06:23:21.258Z,15.14
2023-04-11T06:25:47.740Z,15.17
2023-04-11T06:28:14.237Z,15.21
2023-04-11T06:30:40.599Z,15.24
2023-04-11T06:33:07.238Z,15.27
2023-04-11T06:35:33.955Z,15.28
2023-04-11T06:38:00.596Z,15.30
2023-04-11T06:40:27.009Z,15.32
2023-04-11T06:42:53.686Z,15.32
2023-04-11T06:45:20.364Z,15.29
2023-04-11T06:47:47.053Z,15.28
2023-04-11T06:50:13.722Z,15.25
2023-04-11T06:52:40.056Z,15.21
2023-04-11T06:55:07.220Z,15.16
2023-04-11T06:57:34.077Z,15.11
2023-04-11T07:00:00.938Z,15.09
2023-04-11T07:02:27.665Z,15.07
2023-04-11T07:04:54.267Z,15.07
2023-04-11T07:07:21.210Z,15.08
2023-04-11T07:09:47.569Z,15.11
2023-04-11T07:12:14.169Z,15.15
2023-04-11T07:14:40.922Z,15.20
2023-04-11T07:17:07.335Z,15.25
2023-04-11T07:19:33.941Z,15.32
2023-04-11T07:22:00.450Z,15.38
2023-04-11T07:24:27.306Z,15.45
2023-04-11T07:26:54.259Z,15.54
2023-04-11T07:29:21.340Z,15.61
2023-04-11T07:31:48.111Z,15.67
2023-04-11T07:34:14.580Z,15.74
2023-04-11T07:36:41.783Z,15.83
2023-04-11T07:39:09.513Z,15.88
2023-04-11T07:41:39.222Z,15.93
2023-04-11T07:44:07.149Z,15.97
2023-04-11T07:46:33.999Z,16.01
2023-04-11T07:49:00.374Z,16.07
2023-04-11T07:51:27.192Z,16.12
2023-04-11T07:53:54.494Z,16.17
2023-04-11T07:56:21.082Z,16.21
2023-04-11T07:58:47.806Z,16.24
2023-04-11T08:01:25.776Z,16.27
2023-04-11T08:03:56.180Z,16.36
2023-04-11T08:06:23.732Z,16.47
2023-04-11T08:08:51.139Z,16.56
2023-04-11T08:11:17.854Z,16.69
2023-04-11T08:13:44.457Z,16.82
2023-04-11T08:16:12.322Z,16.94
2023-04-11T08:18:42.557Z,17.07
2023-04-11T08:21:11.419Z,17.19
2023-04-11T08:23:39.883Z,17.28
2023-04-11T08:26:08.054Z,17.33
2023-04-11T08:28:34.448Z,17.36
2023-04-11T08:31:04.174Z,17.39
2023-04-11T08:33:30.911Z,17.42
2023-04-11T08:35:57.349Z,17.46
2023-04-11T08:38:26.210Z,17.48
2023-04-11T08:40:52.976Z,17.51
2023-04-11T08:43:19.744Z,17.51
2023-04-11T08:45:47.238Z,17.52
2023-04-11T08:48:13.838Z,17.52
2023-04-11T08:50:43.713Z,17.50
2023-04-11T08:53:10.705Z,17.50
2023-04-11T08:55:45.781Z,17.47
2023-04-11T08:58:12.566Z,17.50
2023-04-11T09:00:39.036Z,17.50
2023-04-11T09:03:07.605Z,17.47
2023-04-11T09:05:35.339Z,17.47
2023-04-11T09:08:04.885Z,17.52
2023-04-11T09:10:31.529Z,17.52
2023-04-11T09:12:58.623Z,17.55
2023-04-11T09:15:30.448Z,17.58
2023-04-11T09:18:00.347Z,17.64
2023-04-11T09:20:30.136Z,17.70
2023-04-11T09:22:59.206Z,17.75
2023-04-11T09:25:25.839Z,17.78
2023-04-11T09:28:08.586Z,17.78
2023-04-11T09:30:35.228Z,17.81
2023-04-11T09:33:22.403Z,17.77
2023-04-11T09:35:50.756Z,17.81
2023-04-11T09:38:34.146Z,17.78
2023-04-11T09:41:02.342Z,17.81
2023-04-11T09:43:49.806Z,17.79
2023-04-11T09:46:18.690Z,17.86
2023-04-11T09:48:46.900Z,17.90
2023-04-11T09:51:24.267Z,17.95
2023-04-11T09:54:02.086Z,18.00
2023-04-11T09:56:30.554Z,18.04
2023-04-11T09:58:59.434Z,18.09
2023-04-11T10:01:27.397Z,18.15
2023-04-11T10:03:55.764Z,18.18
2023-04-11T10:06:38.876Z,18.19
2023-04-11T10:09:08.016Z,18.25
2023-04-11T10:11:34.672Z,18.27
2023-04-11T10:14:01.143Z,18.27
2023-04-11T10:16:31.345Z,18.30
2023-04-11T10:18:57.804Z,18.33
2023-04-11T10:21:30.495Z,18.35
2023-04-11T10:24:17.163Z,18.37
2023-04-11T10:26:58.945Z,18.45
2023-04-11T10:29:28.438Z,18.46
2023-04-11T10:32:15.992Z,18.45
2023-04-11T10:34:54.614Z,18.47
2023-04-11T10:37:30.378Z,18.50
2023-04-11T10:40:11.944Z,18.58
2023-04-11T10:42:42.888Z,18.60
2023-04-11T10:45:29.739Z,18.61
2023-04-11T10:47:56.291Z,18.64
2023-04-11T10:50:26.154Z,18.63
2023-04-11T10:52:58.477Z,18.66
2023-04-11T10:55:29.423Z,18.71
2023-04-11T10:58:35.821Z,18.73
2023-04-11T11:01:31.548Z,18.79
2023-04-11T11:04:04.441Z,18.85
2023-04-11T11:06:36.170Z,18.82
2023-04-11T11:09:29.089Z,18.80
2023-04-11T11:12:09.126Z,18.80
2023-04-11T11:14:36.521Z,18.84
2023-04-11T11:17:04.538Z,18.86
2023-04-11T11:19:31.726Z,18.86
2023-04-11T11:22:04.967Z,18.86
2023-04-11T11:24:31.741Z,18.87
2023-04-11T11:26:58.488Z,18.87
2023-04-11T11:29:38.016Z,18.88
2023-04-11T11:32:06.349Z,18.93
2023-04-11T11:34:35.291Z,18.93
2023-04-11T11:37:06.943Z,18.93
2023-04-11T11:39:34.872Z,18.93
2023-04-11T11:42:01.804Z,18.88
2023-04-11T11:44:30.947Z,18.81
2023-04-11T11:47:17.757Z,18.68
2023-04-11T11:49:47.483Z,18.59
2023-04-11T11:52:31.728Z,18.43
2023-04-11T11:54:58.468Z,18.34
2023-04-11T11:57:24.892Z,18.21
2023-04-11T11:59:56.124Z,18.07
2023-04-11T12:02:26.781Z,17.97
2023-04-11T12:05:01.520Z,17.88
2023-04-11T12:07:32.707Z,17.82
2023-04-11T12:10:01.218Z,17.80
2023-04-11T12:12:35.465Z,17.77
2023-04-11T12:15:03.909Z,17.79
2023-04-11T12:17:37.838Z,17.79
2023-04-11T12:20:08.432Z,17.85
2023-04-11T12:22:35.313Z,17.91
2023-04-11T12:25:13.344Z,17.97
2023-04-11T12:27:43.999Z,18.05
2023-04-11T12:30:12.233Z,18.13
2023-04-11T12:32:38.722Z,18.20
2023-04-11T12:35:06.334Z,18.26
2023-04-11T12:37:33.716Z,18.33
2023-04-11T12:40:00.799Z,18.40
2023-04-11T12:42:27.624Z,18.48
2023-04-11T12:44:54.655Z,18.54
2023-04-11T12:47:22.638Z,18.60
2023-04-11T12:49:49.067Z,18.62
2023-04-11T12:52:17.153Z,18.66
2023-04-11T12:54:43.589Z,18.69
2023-04-11T12:57:11.891Z,18.72
2023-04-11T12:59:38.246Z,18.77
2023-04-11T13:02:05.752Z,18.82
2023-04-11T13:04:32.509Z,18.87
2023-04-11T13:07:02.360Z,18.92
2023-04-11T13:09:32.605Z,18.96
2023-04-11T13:11:59.568Z,19.01
2023-04-11T13:14:26.234Z,19.02
2023-04-11T13:16:52.750Z,19.01
2023-04-11T13:19:19.619Z,18.98
2023-04-11T13:21:46.242Z,18.94
2023-04-11T13:24:12.616Z,18.90
2023-04-11T13:26:39.499Z,18.86
2023-04-11T13:29:07.317Z,18.85
2023-04-11T13:31:34.034Z,18.85
2023-04-11T13:34:00.785Z,18.87
2023-04-11T13:36:27.392Z,18.88
2023-04-11T13:38:55.702Z,18.92
2023-04-11T13:41:25.485Z,18.97
2023-04-11T13:43:52.628Z,18.99
2023-04-11T13:46:19.794Z,19.03
2023-04-11T13:48:46.244Z,19.10
2023-04-11T13:51:12.949Z,19.13
2023-04-11T13:53:39.820Z,19.17
2023-04-11T13:56:07.774Z,19.23
2023-04-11T13:58:34.965Z,19.30
2023-04-11T14:01:01.437Z,19.36
2023-04-11T14:03:33.223Z,19.40
2023-04-11T14:06:00.665Z,19.44
2023-04-11T14:08:30.279Z,19.49
2023-04-11T14:10:56.840Z,19.54
2023-04-11T14:13:23.549Z,19.57
2023-04-11T14:16:05.003Z,19.60
2023-04-11T14:18:34.069Z,19.64
2023-04-11T14:21:01.692Z,19.67
2023-04-11T14:23:29.101Z,19.71
2023-04-11T14:25:55.723Z,19.72
2023-04-11T14:28:22.242Z,19.73
2023-04-11T14:30:48.785Z,19.72
2023-04-11T14:33:15.622Z,19.73
2023-04-11T14:35:43.220Z,19.72
2023-04-11T14:38:09.634Z,19.72
2023-04-11T14:40:36.060Z,19.72
2023-04-11T14:43:02.783Z,19.74
2023-04-11T14:45:29.142Z,19.77
2023-04-11T14:47:55.742Z,19.76
2023-04-11T14:50:22.423Z,19.79
2023-04-11T14:52:49.330Z,19.81
2023-04-11T14:55:15.910Z,19.83
2023-04-11T14:57:54.273Z,19.83
2023-04-11T15:00:21.842Z,19.87
2023-04-11T15:02:55.845Z,19.86
2023-04-11T15:05:23.571Z,19.90
2023-04-11T15:07:53.040Z,19.90
2023-04-11T15:10:22.342Z,19.89
2023-04-11T15:12:49.467Z,19.90
2023-04-11T15:15:16.349Z,19.90
2023-04-11T15:17:48.926Z,19.91
2023-04-11T15:20:16.307Z,19.93
2023-04-11T15:22:45.396Z,19.92
2023-04-11T15:25:13.889Z,19.92
2023-04-11T15:27:41.119Z,19.94
2023-04-11T15:30:08.192Z,19.94
2023-04-11T15:32:34.816Z,19.93
2023-04-11T15:35:01.403Z,19.93
2023-04-11T15:37:28.038Z,19.94
2023-04-11T15:39:54.521Z,19.94
2023-04-11T15:42:20.924Z,19.96
2023-04-11T15:44:47.396Z,19.96
2023-04-11T15:47:16.706Z,19.96
2023-04-11T15:49:43.203Z,19.95
2023-04-11T15:52:10.636Z,19.93
2023-04-11T15:54:37.286Z,19.91
2023-04-11T15:57:04.027Z,19.89
2023-04-11T15:59:30.704Z,19.86
2023-04-11T16:01:57.493Z,19.86
2023-04-11T16:04:24.121Z,19.83
2023-04-11T16:06:50.916Z,19.82
2023-04-11T16:09:17.669Z,19.81
2023-04-11T16:11:44.039Z,19.80
2023-04-11T16:14:11.267Z,19.79
2023-04-11T16:16:37.864Z,19.79
2023-04-11T16:19:04.513Z,19.78
2023-04-11T16:21:31.327Z,19.80
2023-04-11T16:23:57.871Z,19.82
2023-04-11T16:26:24.377Z,19.82
2023-04-11T16:28:50.885Z,19.82
2023-04-11T16:31:21.878Z,19.82
2023-04-11T16:33:48.314Z,19.82
2023-04-11T16:36:14.880Z,19.81
2023-04-11T16:38:42.083Z,19.81
2023-04-11T16:41:08.715Z,19.80
2023-04-11T16:43:35.106Z,19.80
2023-04-11T16:46:01.953Z,19.78
2023-04-11T16:48:30.211Z,19.77
2023-04-11T16:50:56.884Z,19.75
2023-04-11T16:53:23.247Z,19.75
2023-04-11T16:55:49.945Z,19.73
2023-04-11T16:58:16.857Z,19.71
2023-04-11T17:00:43.712Z,19.68
2023-04-11T17:03:10.927Z,19.66
2023-04-11T17:05:39.265Z,19.65
2023-04-11T17:08:05.828Z,19.63
2023-04-11T17:10:32.388Z,19.59
2023-04-11T17:12:59.070Z,19.56
2023-04-11T17:15:25.462Z,19.53
2023-04-11T17:17:51.844Z,19.50
2023-04-11T17:20:18.448Z,19.47
2023-04-11T17:22:45.178Z,19.44
2023-04-11T17:25:11.692Z,19.40
2023-04-11T17:27:38.668Z,19.37
2023-04-11T17:30:05.808Z,19.34
2023-04-11T17:32:32.773Z,19.33
2023-04-11T17:35:00.948Z,19.32
2023-04-11T17:37:27.653Z,19.32
2023-04-11T17:39:54.502Z,19.31
2023-04-11T17:42:21.643Z,19.29
2023-04-11T17:44:48.039Z,19.27
2023-04-11T17:47:14.626Z,19.25
2023-04-11T17:49:41.107Z,19.23
2023-04-11T17:52:08.356Z,19.21
2023-04-11T17:54:34.805Z,19.23
2023-04-11T17:57:01.211Z,19.23
2023-04-11T17:59:27.808Z,19.22
2023-04-11T18:01:55.857Z,19.21
2023-04-11T18:04:23.195Z,19.20
2023-04-11T18:06:49.568Z,19.17
2023-04-11T18:09:16.272Z,19.14
2023-04-11T18:11:43.826Z,19.12
2023-04-11T18:14:10.324Z,19.08
2023-04-11T18:16:38.712Z,19.05
2023-04-11T18:19:05.481Z,19.01
2023-04-11T18:21:31.810Z,18.97
2023-04-11T18:23:58.511Z,18.91
2023-04-11T18:26:25.103Z,18.87
2023-04-11T18:28:51.429Z,18.82
2023-04-11T18:31:18.050Z,18.75
2023-04-11T18:33:46.873Z,18.70
2023-04-11T18:36:14.207Z,18.65
2023-04-11T18:38:41.311Z,18.61
2023-04-11T18:41:08.329Z,18.57
2023-04-11T18:43:35.644Z,18.54
2023-04-11T18:46:02.615Z,18.49
2023-04-11T18:48:29.444Z,18.44
2023-04-11T18:51:00.595Z,18.39
2023-04-11T18:53:29.011Z,18.35
2023-04-11T18:55:55.501Z,18.32
2023-04-11T18:58:25.731Z,18.27
2023-04-11T19:00:53.288Z,18.21
2023-04-11T19:03:20.673Z,18.17
2023-04-11T19:05:48.227Z,18.13
2023-04-11T19:08:14.688Z,18.08
2023-04-11T19:10:41.377Z,18.03
2023-04-11T19:13:08.118Z,17.98
2023-04-11T19:15:34.543Z,17.93
2023-04-11T19:18:01.712Z,17.90
2023-04-11T19:20:29.668Z,17.86
2023-04-11T19:22:56.235Z,17.83
2023-04-11T19:25:22.700Z,17.79
2023-04-11T19:27:50.394Z,17.76
2023-04-11T19:30:20.061Z,17.71
2023-04-11T19:32:47.577Z,17.67
2023-04-11T19:35:14.735Z,17.64
2023-04-11T19:37:42.467Z,17.60
2023-04-11T19:40:13.688Z,17.55
2023-04-11T19:42:41.895Z,17.53
2023-04-11T19:45:12.208Z,17.48
2023-04-11T19:47:40.060Z,17.45
2023-04-11T19:50:15.332Z,17.41
2023-04-11T19:52:42.912Z,17.41
2023-04-11T19:55:10.997Z,17.39
2023-04-11T19:57:39.185Z,17.38
2023-04-11T20:00:14.102Z,17.35
2023-04-11T20:02:44.531Z,17.34
2023-04-11T20:05:17.034Z,17.32
2023-04-11T20:07:43.969Z,17.29
2023-04-11T20:10:12.154Z,17.27
2023-04-11T20:12:39.557Z,17.24
2023-04-11T20:15:09.263Z,17.20
2023-04-11T20:17:35.895Z,17.17
2023-04-11T20:20:05.909Z,17.14
2023-04-11T20:22:32.498Z,17.11
2023-04-11T20:24:58.882Z,17.09
2023-04-11T20:27:27.433Z,17.05
2023-04-11T20:29:55.996Z,17.02
2023-04-11T20:32:22.408Z,17.04
2023-04-11T20:34:48.833Z,17.04
2023-04-11T20:37:17.045Z,16.99
2023-04-11T20:39:45.724Z,16.94
2023-04-11T20:42:13.183Z,16.92
2023-04-11T20:44:39.628Z,16.89
2023-04-11T20:47:07.649Z,16.87
2023-04-11T20:49:34.090Z,16.85
2023-04-11T20:52:02.069Z,16.82
2023-04-11T20:54:28.744Z,16.82
2023-04-11T20:56:55.906Z,16.79
2023-04-11T20:59:22.246Z,16.80
2023-04-11T21:01:48.617Z,16.80
2023-04-11T21:04:17.543Z,16.79
2023-04-11T21:06:44.823Z,16.77
2023-04-11T21:09:11.225Z,16.76
2023-04-11T21:11:37.570Z,16.75
2023-04-11T21:14:05.132Z,16.74
2023-04-11T21:16:31.503Z,16.73
2023-04-11T21:18:58.980Z,16.72
2023-04-11T21:21:26.764Z,16.70
2023-04-11T21:23:53.747Z,16.70
2023-04-11T21:26:20.096Z,16.69
2023-04-11T21:28:46.709Z,16.70
2023-04-11T21:31:13.085Z,16.69
2023-04-11T21:33:39.654Z,16.69
2023-04-11T21:36:06.543Z,16.69
2023-04-11T21:38:33.186Z,16.69
2023-04-11T21:40:59.685Z,16.70
2023-04-11T21:43:26.306Z,16.69
2023-04-11T21:45:52.680Z,16.69
2023-04-11T21:48:19.092Z,16.69
2023-04-11T21:50:46.097Z,16.69
2023-04-11T21:53:13.987Z,16.69
2023-04-11T21:55:46.681Z,16.67
2023-04-11T21:58:27.867Z,16.67
2023-04-11T22:00:56.140Z,16.68
2023-04-11T22:03:23.772Z,16.67
2023-04-11T22:05:54.221Z,16.67
2023-04-11T22:08:22.412Z,16.65
2023-04-11T22:10:50.756Z,16.65
2023-04-11T22:13:19.474Z,16.62
2023-04-11T22:15:46.150Z,16.62
2023-04-11T22:18:12.999Z,16.65
2023-04-11T22:20:43.981Z,16.60
2023-04-11T22:23:12.598Z,16.59
2023-04-11T22:25:42.923Z,16.56
2023-04-11T22:28:20.613Z,16.54
2023-04-11T22:30:48.706Z,16.54
2023-04-11T22:33:15.618Z,16.54
2023-04-11T22:35:48.027Z,16.54
2023-04-11T22:38:17.367Z,16.54
2023-04-11T22:40:43.767Z,16.54
2023-04-11T22:43:10.526Z,16.56
2023-04-11T22:45:37.026Z,16.56
2023-04-11T22:48:04.670Z,16.58
2023-04-11T22:50:41.732Z,16.59
2023-04-11T22:53:09.479Z,16.59
2023-04-11T22:55:36.161Z,16.59
2023-04-11T22:58:03.645Z,16.59
2023-04-11T23:00:30.057Z,16.57
2023-04-11T23:02:59.289Z,16.57
2023-04-11T23:05:25.785Z,16.57
2023-04-11T23:07:52.125Z,16.55
2023-04-11T23:10:19.248Z,16.56
2023-04-11T23:12:47.276Z,16.56
2023-04-11T23:15:13.972Z,16.56
2023-04-11T23:17:41.486Z,16.55
2023-04-11T23:20:12.989Z,16.56
2023-04-11T23:22:42.027Z,16.55
2023-04-11T23:25:12.803Z,16.54
2023-04-11T23:27:39.692Z,16.54
2023-04-11T23:30:08.891Z,16.54
2023-04-11T23:32:35.723Z,16.54
2023-04-11T23:35:04.459Z,16.53
2023-04-11T23:37:32.433Z,16.53
2023-04-11T23:39:59.341Z,16.53
2023-04-11T23:42:26.127Z,16.52
2023-04-11T23:44:52.810Z,16.53
2023-04-11T23:47:19.503Z,16.52
2023-04-11T23:49:46.061Z,16.53
2023-04-11T23:52:12.512Z,16.52
2023-04-11T23:54:39.205Z,16.53
2023-04-11T23:57:06.143Z,16.53
2023-04-11T23:59:32.565Z,16.53
